createdAt,value
2023-10-06T00:01:22.397Z,7.90
2023-10-06T00:03:58.733Z,10.67
2023-10-06T00:06:28.667Z,8.53
2023-10-06T00:08:58.248Z,10.63
2023-10-06T00:11:30.338Z,11.37
2023-10-06T00:14:08.682Z,9.27
2023-10-06T00:16:42.263Z,8.97
2023-10-06T00:19:32.981Z,10.23
2023-10-06T00:22:06.612Z,10.70
2023-10-06T00:24:38.837Z,8.43
2023-10-06T00:27:11.993Z,11.40
2023-10-06T00:29:45.018Z,11.90
2023-10-06T00:32:23.432Z,7.60
2023-10-06T00:34:53.858Z,8.10
2023-10-06T00:37:24.989Z,7.70
2023-10-06T00:39:58.920Z,8.50
2023-10-06T00:42:30.929Z,14.20
2023-10-06T00:45:06.868Z,10.30
2023-10-06T00:47:40.260Z,11.77
2023-10-06T00:50:13.312Z,7.47
2023-10-06T00:52:44.148Z,9.10
2023-10-06T00:55:15.533Z,10.10
2023-10-06T00:57:51.357Z,8.33
2023-10-06T01:00:22.735Z,6.70
2023-10-06T01:02:53.049Z,6.73
2023-10-06T01:05:20.831Z,9.40
2023-10-06T01:07:48.263Z,9.77
2023-10-06T01:10:26.450Z,6.88
2023-10-06T01:12:53.790Z,7.95
2023-10-06T01:15:21.893Z,11.32
2023-10-06T01:17:54.770Z,8.93
2023-10-06T01:20:42.651Z,9.38
2023-10-06T01:23:21.013Z,9.43
2023-10-06T01:26:01.064Z,13.20
2023-10-06T01:28:36.048Z,4.90
2023-10-06T01:31:03.990Z,10.45
2023-10-06T01:33:33.346Z,8.75
2023-10-06T01:36:02.736Z,8.77
2023-10-06T01:38:30.771Z,11.55
2023-10-06T01:41:03.560Z,7.95
2023-10-06T01:43:34.414Z,9.82
2023-10-06T01:46:01.699Z,8.67
2023-10-06T01:48:32.383Z,7.50
2023-10-06T01:51:01.953Z,12.17
2023-10-06T01:53:34.310Z,7.13
2023-10-06T01:56:08.709Z,8.77
2023-10-06T01:58:40.942Z,8.30
2023-10-06T02:01:10.599Z,8.87
2023-10-06T02:03:39.704Z,8.60
2023-10-06T02:06:15.104Z,8.67
2023-10-06T02:08:44.711Z,7.73
2023-10-06T02:11:13.798Z,7.33
2023-10-06T02:13:43.833Z,6.80
2023-10-06T02:16:19.150Z,8.10
2023-10-06T02:18:48.797Z,8.83
2023-10-06T02:21:16.117Z,8.20
2023-10-06T02:23:45.018Z,8.13
2023-10-06T02:26:13.681Z,5.43
2023-10-06T02:28:44.951Z,7.90
2023-10-06T02:31:13.609Z,7.60
2023-10-06T02:33:47.901Z,5.70
2023-10-06T02:36:23.962Z,7.63
2023-10-06T02:38:52.387Z,7.40
2023-10-06T02:41:22.410Z,8.70
2023-10-06T02:43:53.054Z,8.57
2023-10-06T02:46:24.644Z,9.13
2023-10-06T02:48:56.632Z,12.83
2023-10-06T02:51:33.736Z,8.47
2023-10-06T02:54:31.496Z,10.90
2023-10-06T02:57:06.020Z,7.23
2023-10-06T02:59:35.940Z,9.23
2023-10-06T03:02:17.218Z,8.60
2023-10-06T03:04:50.445Z,9.57
2023-10-06T03:07:19.984Z,9.53
2023-10-06T03:09:50.313Z,9.00
2023-10-06T03:12:27.919Z,7.83
2023-10-06T03:14:55.621Z,8.70
2023-10-06T03:17:23.832Z,9.10
2023-10-06T03:20:11.935Z,12.20
2023-10-06T03:22:46.491Z,7.60
2023-10-06T03:25:18.406Z,6.20
2023-10-06T03:27:53.967Z,13.70
2023-10-06T03:30:30.093Z,6.77
2023-10-06T03:32:59.996Z,9.80
2023-10-06T03:35:49.800Z,11.27
2023-10-06T03:38:19.636Z,9.13
2023-10-06T03:40:58.082Z,9.47
2023-10-06T03:43:46.106Z,12.73
2023-10-06T03:46:21.073Z,9.73
2023-10-06T03:48:51.614Z,7.07
2023-10-06T03:51:22.047Z,8.20
2023-10-06T03:53:52.317Z,7.63
2023-10-06T03:56:22.663Z,10.77
2023-10-06T03:58:50.134Z,11.20
2023-10-06T04:01:27.594Z,9.10
2023-10-06T04:03:55.319Z,12.23
2023-10-06T04:06:24.510Z,11.30
2023-10-06T04:08:54.993Z,9.03
2023-10-06T04:11:24.347Z,13.00
2023-10-06T04:13:51.885Z,8.97
2023-10-06T04:16:20.845Z,10.23
2023-10-06T04:18:50.537Z,8.17
2023-10-06T04:21:18.481Z,13.23
2023-10-06T04:23:48.052Z,7.93
2023-10-06T04:26:17.680Z,5.10
2023-10-06T04:28:51.600Z,9.50
2023-10-06T04:31:23.650Z,8.70
2023-10-06T04:33:54.989Z,8.20
2023-10-06T04:36:25.297Z,11.27
2023-10-06T04:38:57.850Z,10.90
2023-10-06T04:41:25.208Z,13.10
2023-10-06T04:43:54.524Z,9.47
2023-10-06T04:46:24.547Z,6.47
2023-10-06T04:48:54.384Z,8.40
2023-10-06T04:51:22.238Z,9.77
2023-10-06T04:53:49.809Z,8.60
2023-10-06T04:56:18.095Z,9.97
2023-10-06T04:58:50.132Z,10.10
2023-10-06T05:01:17.802Z,8.73
2023-10-06T05:03:50.160Z,11.43
2023-10-06T05:06:22.851Z,10.77
2023-10-06T05:08:52.247Z,9.90
2023-10-06T05:11:24.553Z,10.83
2023-10-06T05:13:55.034Z,12.03
2023-10-06T05:16:27.485Z,7.37
2023-10-06T05:18:55.122Z,13.17
2023-10-06T05:21:22.358Z,11.70
2023-10-06T05:23:49.774Z,12.17
2023-10-06T05:26:17.831Z,13.67
2023-10-06T05:28:51.749Z,13.50
2023-10-06T05:31:19.130Z,11.40
2023-10-06T05:33:48.954Z,9.20
2023-10-06T05:36:20.468Z,11.50
2023-10-06T05:38:51.060Z,14.73
2023-10-06T05:41:20.676Z,10.83
2023-10-06T05:43:52.820Z,12.67
2023-10-06T05:46:20.597Z,15.20
2023-10-06T05:48:51.844Z,8.10
2023-10-06T05:51:22.722Z,12.93
2023-10-06T05:53:49.938Z,11.07
2023-10-06T05:56:21.348Z,11.23
2023-10-06T05:58:51.258Z,12.17
2023-10-06T06:01:22.416Z,14.57
2023-10-06T06:03:52.838Z,13.57
2023-10-06T06:06:28.688Z,13.03
2023-10-06T06:08:57.223Z,14.87
2023-10-06T06:11:32.514Z,14.70
2023-10-06T06:14:15.018Z,14.13
2023-10-06T06:16:47.231Z,13.20
2023-10-06T06:19:19.432Z,13.97
2023-10-06T06:21:54.082Z,14.70
2023-10-06T06:24:23.722Z,12.97
2023-10-06T06:26:53.624Z,13.27
2023-10-06T06:29:21.209Z,13.07
2023-10-06T06:31:54.199Z,12.77
2023-10-06T06:34:24.467Z,17.70
2023-10-06T06:36:54.770Z,17.67
2023-10-06T06:39:24.291Z,14.77
2023-10-06T06:41:54.699Z,14.90
2023-10-06T06:44:27.145Z,11.33
2023-10-06T06:46:56.585Z,12.03
2023-10-06T06:49:27.986Z,21.23
2023-10-06T06:51:55.196Z,13.30
2023-10-06T06:54:25.251Z,17.83
2023-10-06T06:56:52.373Z,13.17
2023-10-06T06:59:20.384Z,20.63
2023-10-06T07:01:49.033Z,16.97
2023-10-06T07:04:27.220Z,15.27
2023-10-06T07:06:54.381Z,18.40
2023-10-06T07:09:23.335Z,20.60
2023-10-06T07:11:52.686Z,14.23
2023-10-06T07:14:20.042Z,17.70
2023-10-06T07:16:48.544Z,17.53
2023-10-06T07:19:18.920Z,20.37
2023-10-06T07:21:48.594Z,14.17
2023-10-06T07:24:15.707Z,10.20
2023-10-06T07:26:51.394Z,18.23
2023-10-06T07:29:21.392Z,13.83
2023-10-06T07:31:55.640Z,18.70
2023-10-06T07:34:22.868Z,23.00
2023-10-06T07:36:50.016Z,19.93
2023-10-06T07:39:22.260Z,12.63
2023-10-06T07:41:49.436Z,20.30
2023-10-06T07:44:16.683Z,14.87
2023-10-06T07:46:43.842Z,58.87
2023-10-06T07:49:13.131Z,59.77
2023-10-06T07:51:44.270Z,70.33
2023-10-06T07:54:13.848Z,28.47
2023-10-06T07:56:43.740Z,27.40
2023-10-06T07:59:13.178Z,39.27
2023-10-06T08:01:40.356Z,32.20
2023-10-06T08:04:09.356Z,31.53
2023-10-06T08:06:39.167Z,52.17
2023-10-06T08:09:06.912Z,25.73
2023-10-06T08:11:43.598Z,46.93
2023-10-06T08:14:14.601Z,77.03
2023-10-06T08:16:47.050Z,15.20
2023-10-06T08:19:14.618Z,15.20
2023-10-06T08:21:42.500Z,14.17
2023-10-06T08:24:10.413Z,22.50
2023-10-06T08:26:40.558Z,24.47
2023-10-06T08:29:07.927Z,41.70
2023-10-06T08:31:40.118Z,41.30
2023-10-06T08:34:07.471Z,33.70
2023-10-06T08:36:42.651Z,45.83
2023-10-06T08:39:14.716Z,47.15
2023-10-06T08:41:48.426Z,33.47
2023-10-06T08:44:20.598Z,54.92
2023-10-06T08:46:49.369Z,45.73
2023-10-06T08:49:20.539Z,28.67
2023-10-06T08:51:52.432Z,39.25
2023-10-06T08:54:22.862Z,52.75
2023-10-06T08:56:52.137Z,18.73
2023-10-06T08:59:21.392Z,17.33
2023-10-06T09:01:48.713Z,16.02
2023-10-06T09:04:23.260Z,12.85
2023-10-06T09:07:17.792Z,12.15
2023-10-06T09:09:45.276Z,13.52
2023-10-06T09:12:27.726Z,11.73
2023-10-06T09:14:57.245Z,12.55
2023-10-06T09:17:34.926Z,16.05
2023-10-06T09:20:10.689Z,11.88
2023-10-06T09:22:52.350Z,15.63
2023-10-06T09:25:20.610Z,12.50
2023-10-06T09:27:50.013Z,22.55
2023-10-06T09:30:21.714Z,14.52
2023-10-06T09:33:05.960Z,13.00
2023-10-06T09:35:38.177Z,12.82
2023-10-06T09:38:14.929Z,14.13
2023-10-06T09:40:45.945Z,10.55
2023-10-06T09:43:17.106Z,9.48
2023-10-06T09:45:46.146Z,10.55
2023-10-06T09:48:20.258Z,12.40
2023-10-06T09:50:48.116Z,13.32
2023-10-06T09:53:18.331Z,11.20
2023-10-06T09:55:53.823Z,15.88
2023-10-06T09:58:23.543Z,9.93
2023-10-06T10:00:51.143Z,12.93
2023-10-06T10:03:19.477Z,13.10
2023-10-06T10:05:49.924Z,11.70
2023-10-06T10:08:18.037Z,10.93
2023-10-06T10:10:49.429Z,13.80
2023-10-06T10:13:25.125Z,11.90
2023-10-06T10:16:18.061Z,7.20
2023-10-06T10:19:04.788Z,11.43
2023-10-06T10:21:36.151Z,11.10
2023-10-06T10:24:40.976Z,12.63
2023-10-06T10:27:04.848Z,12.52
2023-10-06T10:29:32.321Z,10.82
2023-10-06T10:32:26.028Z,9.52
2023-10-06T10:35:14.751Z,7.07
2023-10-06T10:38:05.654Z,6.40
2023-10-06T10:40:48.545Z,7.80
2023-10-06T10:43:18.585Z,9.07
2023-10-06T10:45:48.514Z,9.27
2023-10-06T10:48:16.970Z,10.18
2023-10-06T10:51:07.218Z,9.43
2023-10-06T10:53:45.977Z,9.95
2023-10-06T10:56:26.526Z,8.65
2023-10-06T10:58:59.648Z,13.93
2023-10-06T11:01:28.482Z,11.98
2023-10-06T11:04:28.397Z,10.55
2023-10-06T11:06:59.368Z,7.20
2023-10-06T11:09:40.798Z,9.32
2023-10-06T11:12:26.412Z,9.43
2023-10-06T11:14:58.213Z,9.00
2023-10-06T11:17:30.841Z,7.30
2023-10-06T11:20:15.365Z,8.82
2023-10-06T11:22:55.381Z,13.35
2023-10-06T11:25:29.602Z,14.00
2023-10-06T11:28:05.145Z,11.02
2023-10-06T11:30:36.734Z,9.77
2023-10-06T11:33:08.052Z,8.82
2023-10-06T11:35:41.809Z,9.32
2023-10-06T11:38:17.077Z,7.93
2023-10-06T11:40:49.357Z,13.35
2023-10-06T11:43:22.801Z,10.07
2023-10-06T11:46:02.962Z,12.07
2023-10-06T11:48:32.552Z,12.80
2023-10-06T11:51:07.783Z,5.40
2023-10-06T11:53:41.714Z,9.70
2023-10-06T11:56:20.863Z,8.52
2023-10-06T11:58:52.959Z,17.63
2023-10-06T12:04:33.283Z,20.00
2023-10-06T12:07:02.503Z,18.42
2023-10-06T12:09:36.383Z,36.15
2023-10-06T12:12:03.773Z,15.35
2023-10-06T12:14:35.180Z,20.42
2023-10-06T12:17:02.491Z,13.40
2023-10-06T12:19:32.302Z,29.13
2023-10-06T12:22:00.841Z,29.70
2023-10-06T12:24:32.869Z,28.02
2023-10-06T12:27:00.095Z,42.88
2023-10-06T12:29:32.737Z,40.15
2023-10-06T12:32:05.084Z,10.68
2023-10-06T12:34:33.024Z,10.60
2023-10-06T12:37:05.087Z,25.48
2023-10-06T12:39:35.603Z,33.17
2023-10-06T12:42:08.937Z,9.02
2023-10-06T12:44:41.132Z,29.23
2023-10-06T12:47:15.620Z,9.95
2023-10-06T12:49:46.926Z,8.57
2023-10-06T12:52:14.136Z,10.93
2023-10-06T12:54:42.252Z,10.95
2023-10-06T12:57:14.050Z,16.55
2023-10-06T12:59:41.234Z,11.90
2023-10-06T13:02:08.416Z,6.57
2023-10-06T13:04:37.757Z,10.18
2023-10-06T13:07:05.512Z,5.43
2023-10-06T13:09:37.017Z,8.13
2023-10-06T13:12:05.261Z,11.20
2023-10-06T13:14:37.037Z,6.82
2023-10-06T13:17:13.597Z,14.05
2023-10-06T13:19:43.900Z,10.40
2023-10-06T13:22:11.006Z,11.02
2023-10-06T13:24:40.809Z,12.73
2023-10-06T13:27:10.459Z,10.52
2023-10-06T13:29:39.962Z,10.20
2023-10-06T13:32:12.436Z,8.60
2023-10-06T13:34:39.741Z,12.68
2023-10-06T13:37:08.525Z,12.35
2023-10-06T13:39:35.711Z,7.03
2023-10-06T13:42:04.400Z,8.05
2023-10-06T13:44:32.732Z,8.25
2023-10-06T13:47:06.735Z,8.45
2023-10-06T13:49:34.163Z,11.43
2023-10-06T13:52:04.166Z,8.93
2023-10-06T13:54:35.839Z,10.38
2023-10-06T13:57:07.489Z,8.50
2023-10-06T13:59:43.619Z,9.85
2023-10-06T14:02:14.063Z,10.48
2023-10-06T14:04:46.906Z,9.15
2023-10-06T14:07:18.702Z,8.75
2023-10-06T14:09:49.467Z,10.23
2023-10-06T14:12:18.844Z,9.32
2023-10-06T14:14:48.955Z,10.35
2023-10-06T14:17:22.896Z,14.48
2023-10-06T14:19:51.518Z,12.68
2023-10-06T14:22:22.688Z,10.55
2023-10-06T14:24:54.219Z,15.80
2023-10-06T14:27:21.360Z,10.27
2023-10-06T14:29:48.599Z,12.82
2023-10-06T14:32:39.604Z,8.68
2023-10-06T14:35:35.028Z,8.50
2023-10-06T14:38:20.691Z,12.18
2023-10-06T14:41:15.257Z,6.97
2023-10-06T14:44:05.036Z,7.30
2023-10-06T14:46:32.727Z,10.45
2023-10-06T14:49:06.729Z,9.52
2023-10-06T14:51:34.840Z,14.20
2023-10-06T14:54:09.170Z,16.98
2023-10-06T14:56:39.024Z,11.98
2023-10-06T14:59:11.201Z,10.40
2023-10-06T15:01:43.389Z,13.23
2023-10-06T15:04:14.610Z,7.20
2023-10-06T15:06:45.260Z,9.10
2023-10-06T15:09:20.163Z,12.93
2023-10-06T15:11:56.882Z,12.73
2023-10-06T15:14:26.855Z,11.95
2023-10-06T15:16:54.849Z,10.27
2023-10-06T15:19:26.575Z,8.45
2023-10-06T15:21:58.538Z,16.17
2023-10-06T15:24:30.359Z,13.02
2023-10-06T15:26:58.081Z,8.65
2023-10-06T15:29:29.333Z,13.68
2023-10-06T15:31:57.136Z,13.10
2023-10-06T15:37:00.682Z,11.32
2023-10-06T15:39:27.814Z,11.32
2023-10-06T15:41:55.738Z,13.55
2023-10-06T15:44:28.814Z,10.32
2023-10-06T15:46:58.755Z,10.25
2023-10-06T15:49:29.041Z,13.27
2023-10-06T15:51:56.369Z,10.90
2023-10-06T15:54:29.283Z,10.55
2023-10-06T15:57:03.277Z,8.20
2023-10-06T15:59:31.224Z,10.63
2023-10-06T16:02:00.564Z,13.20
2023-10-06T16:04:35.978Z,10.38
2023-10-06T16:07:04.586Z,8.02
2023-10-06T16:09:32.048Z,9.95
2023-10-06T16:12:02.789Z,8.82
2023-10-06T16:14:29.938Z,9.18
2023-10-06T16:16:59.479Z,12.13
2023-10-06T16:19:26.856Z,7.00
2023-10-06T16:21:56.747Z,11.30
2023-10-06T16:24:28.741Z,8.32
2023-10-06T16:26:55.811Z,8.77
2023-10-06T16:29:25.129Z,7.18
2023-10-06T16:31:52.325Z,9.32
2023-10-06T16:34:21.762Z,13.45
2023-10-06T16:36:53.766Z,9.35
2023-10-06T16:39:23.108Z,10.20
2023-10-06T16:41:50.897Z,7.28
2023-10-06T16:44:21.660Z,9.23
2023-10-06T16:46:51.128Z,11.30
2023-10-06T16:51:48.031Z,7.97
2023-10-06T16:54:16.278Z,11.27
2023-10-06T16:56:45.638Z,7.28
2023-10-06T16:59:15.556Z,9.00
2023-10-06T17:01:45.333Z,7.07
2023-10-06T17:04:16.126Z,10.45
2023-10-06T17:06:44.162Z,5.80
2023-10-06T17:09:19.990Z,10.18
2023-10-06T17:11:48.674Z,10.43
2023-10-06T17:14:15.997Z,11.20
2023-10-06T17:16:46.340Z,10.27
2023-10-06T17:19:14.776Z,8.52
2023-10-06T17:21:43.767Z,9.05
2023-10-06T17:24:12.357Z,10.75
2023-10-06T17:26:44.254Z,10.35
2023-10-06T17:29:12.255Z,13.10
2023-10-06T17:31:39.598Z,8.93
2023-10-06T17:34:06.851Z,9.75
2023-10-06T17:36:40.557Z,11.38
2023-10-06T17:39:10.878Z,10.43
2023-10-06T17:41:40.372Z,11.18
2023-10-06T17:44:10.829Z,12.27
2023-10-06T17:46:40.631Z,10.18
2023-10-06T17:49:09.350Z,9.57
2023-10-06T17:51:39.034Z,12.02
2023-10-06T17:54:11.731Z,6.75
2023-10-06T17:56:39.466Z,7.82
2023-10-06T17:59:11.507Z,11.15
2023-10-06T18:01:48.612Z,8.63
2023-10-06T18:04:16.052Z,9.77
2023-10-06T18:06:45.766Z,10.50
2023-10-06T18:09:18.915Z,8.68
2023-10-06T18:11:57.513Z,8.48
2023-10-06T18:14:39.377Z,9.07
2023-10-06T18:17:12.185Z,8.27
2023-10-06T18:19:39.593Z,9.70
2023-10-06T18:22:12.713Z,18.58
2023-10-06T18:24:44.129Z,12.85
2023-10-06T18:27:13.455Z,11.05
2023-10-06T18:29:45.321Z,10.07
2023-10-06T18:32:18.231Z,9.30
2023-10-06T18:34:45.574Z,10.68
2023-10-06T18:37:12.822Z,7.63
2023-10-06T18:39:43.940Z,11.05
2023-10-06T18:42:13.287Z,13.65
2023-10-06T18:44:42.932Z,11.77
2023-10-06T18:47:11.502Z,12.95
2023-10-06T18:49:39.752Z,12.25
2023-10-06T18:52:09.543Z,14.38
2023-10-06T18:54:41.432Z,11.52
2023-10-06T18:57:09.124Z,12.57
2023-10-06T18:59:38.553Z,14.32
2023-10-06T19:02:15.821Z,15.02
2023-10-06T19:04:43.585Z,12.60
2023-10-06T19:07:14.131Z,10.52
2023-10-06T19:09:48.567Z,10.55
2023-10-06T19:12:18.481Z,10.18
2023-10-06T19:14:45.563Z,11.77
2023-10-06T19:17:15.030Z,11.93
2023-10-06T19:19:46.710Z,11.98
2023-10-06T19:22:18.809Z,11.93
2023-10-06T19:24:48.474Z,14.65
2023-10-06T19:27:18.617Z,7.40
2023-10-06T19:29:47.869Z,7.93
2023-10-06T19:32:17.501Z,11.25
2023-10-06T19:34:46.862Z,10.50
2023-10-06T19:37:20.871Z,10.18
2023-10-06T19:39:50.526Z,12.63
2023-10-06T19:42:20.056Z,6.57
2023-10-06T19:44:51.782Z,10.75
2023-10-06T19:47:26.828Z,7.00
2023-10-06T19:49:58.768Z,11.98
2023-10-06T19:52:25.979Z,6.50
2023-10-06T19:54:53.214Z,10.88
2023-10-06T19:57:21.925Z,11.75
2023-10-06T19:59:51.638Z,13.27
2023-10-06T20:02:21.089Z,9.35
2023-10-06T20:04:53.402Z,9.00
2023-10-06T20:07:20.726Z,10.70
2023-10-06T20:09:48.149Z,10.07
2023-10-06T20:12:15.290Z,14.15
2023-10-06T20:14:44.600Z,13.40
2023-10-06T20:17:14.093Z,17.98
2023-10-06T20:19:43.153Z,10.77
2023-10-06T20:22:11.592Z,9.85
2023-10-06T20:24:43.332Z,10.25
2023-10-06T20:27:12.697Z,12.07
2023-10-06T20:29:44.687Z,8.80
2023-10-06T20:32:11.900Z,9.45
2023-10-06T20:34:39.218Z,10.77
2023-10-06T20:37:06.505Z,10.90
2023-10-06T20:39:43.298Z,8.67
2023-10-06T20:42:12.588Z,9.70
2023-10-06T20:44:39.723Z,8.63
2023-10-06T20:47:09.494Z,10.20
2023-10-06T20:49:39.101Z,10.40
2023-10-06T20:52:11.093Z,7.63
2023-10-06T20:54:40.296Z,12.45
2023-10-06T20:57:07.373Z,9.50
2023-10-06T20:59:37.134Z,9.23
2023-10-06T21:02:06.808Z,7.75
2023-10-06T21:04:35.851Z,7.95
2023-10-06T21:07:09.120Z,10.60
2023-10-06T21:09:38.986Z,11.03
2023-10-06T21:12:06.125Z,8.13
2023-10-06T21:14:38.337Z,9.18
2023-10-06T21:17:07.877Z,9.15
2023-10-06T21:19:35.141Z,11.60
2023-10-06T21:22:04.746Z,10.20
2023-10-06T21:24:32.423Z,8.63
2023-10-06T21:27:06.910Z,8.00
2023-10-06T21:29:33.981Z,10.45
2023-10-06T21:32:07.870Z,9.47
2023-10-06T21:34:39.596Z,8.93
2023-10-06T21:37:11.516Z,10.05
2023-10-06T21:39:41.854Z,8.80
2023-10-06T21:42:11.207Z,11.50
2023-10-06T21:44:42.436Z,10.00
2023-10-06T21:47:09.749Z,11.88
2023-10-06T21:49:47.238Z,9.55
2023-10-06T21:52:14.609Z,9.93
2023-10-06T21:54:44.284Z,7.50
2023-10-06T21:57:14.581Z,8.55
2023-10-06T21:59:43.813Z,8.05
2023-10-06T22:02:11.707Z,7.53
2023-10-06T22:04:41.528Z,9.02
2023-10-06T22:07:08.687Z,9.83
2023-10-06T22:09:35.912Z,8.67
2023-10-06T22:12:05.286Z,12.27
2023-10-06T22:14:36.484Z,9.07
2023-10-06T22:17:08.543Z,9.83
2023-10-06T22:19:42.143Z,6.95
2023-10-06T22:22:11.693Z,9.93
2023-10-06T22:24:41.623Z,11.77
2023-10-06T22:27:11.339Z,8.00
2023-10-06T22:29:40.828Z,10.68
2023-10-06T22:32:08.172Z,8.98
2023-10-06T22:34:38.451Z,10.83
2023-10-06T22:37:13.580Z,8.63
2023-10-06T22:39:49.852Z,9.00
2023-10-06T22:42:22.399Z,8.23
2023-10-06T22:44:49.824Z,9.07
2023-10-06T22:47:17.071Z,10.23
2023-10-06T22:49:44.358Z,8.50
2023-10-06T22:52:14.796Z,8.97
2023-10-06T22:54:49.013Z,10.60
2023-10-06T22:57:18.629Z,9.30
2023-10-06T22:59:48.176Z,8.73
2023-10-06T23:02:17.526Z,10.33
2023-10-06T23:04:44.732Z,6.70
2023-10-06T23:07:14.451Z,6.63
2023-10-06T23:09:46.477Z,7.13
2023-10-06T23:12:15.868Z,7.47
2023-10-06T23:14:43.485Z,7.93
2023-10-06T23:17:11.064Z,7.47
2023-10-06T23:19:40.686Z,9.87
2023-10-06T23:22:07.931Z,7.50
2023-10-06T23:24:50.140Z,8.27
2023-10-06T23:27:21.901Z,7.77
2023-10-06T23:29:51.581Z,10.67
2023-10-06T23:32:25.988Z,10.37
2023-10-06T23:34:56.922Z,7.73
2023-10-06T23:37:24.179Z,9.53
2023-10-06T23:39:51.690Z,6.23
2023-10-06T23:42:25.534Z,8.90
2023-10-06T23:44:52.689Z,10.25
2023-10-06T23:47:24.422Z,7.80
2023-10-06T23:49:57.909Z,10.77
2023-10-06T23:52:27.552Z,11.53
2023-10-06T23:54:57.920Z,7.60
2023-10-06T23:57:28.104Z,10.20
2023-10-06T23:59:57.728Z,8.50
